Panfilov, Kazakhstan
Current Conditions -  °F | °C
As of 12:30 AM on Friday 31 Oct 2014 (Local Time) from UAAA Reporting Station
Haze Haze  
Wind Chill: 25°   Ceiling: 200
Heat Index: 30°   Visibility: 0.68mi
Dew Point: 27°   Wind: 4mph
Humidity: 86%   Direction: 70°ENE
Pressure: 30.53"   Gusts: NA
Location:  44.17°N, 80°E
Report Text: UAAA 301830Z 07002MPS 1100 R23R/P2000D R23L/P2000D BROVC002 M01/M03 Q1034 R88/CLRD65 NOSIG RMK QBB080
Loading
Personal Weather Stations






























Interactive Weather Map
Tropical Storm Tracking
New forecast layout! Learn more

10-Day Weather Forecast

Advertisements
Track Severe Weather on mobile